sensor_id;sensor_type;location;lat;lon;timestamp;P1;durP1;ratioP1;P2;durP2;ratioP2
12076;SDS011;12420;42.676;23.262;2022-07-25T00:00:33;11.00;;;9.95;;
12076;SDS011;12420;42.676;23.262;2022-07-25T00:03:00;11.00;;;9.93;;
12076;SDS011;12420;42.676;23.262;2022-07-25T00:05:27;11.05;;;10.10;;
12076;SDS011;12420;42.676;23.262;2022-07-25T00:07:54;11.20;;;10.07;;
12076;SDS011;12420;42.676;23.262;2022-07-25T00:10:21;11.48;;;10.38;;
12076;SDS011;12420;42.676;23.262;2022-07-25T00:12:49;11.95;;;10.65;;
12076;SDS011;12420;42.676;23.262;2022-07-25T00:15:16;10.95;;;9.88;;
12076;SDS011;12420;42.676;23.262;2022-07-25T00:17:43;11.68;;;10.52;;
12076;SDS011;12420;42.676;23.262;2022-07-25T00:20:10;11.00;;;10.00;;
12076;SDS011;12420;42.676;23.262;2022-07-25T00:22:37;12.18;;;10.55;;
12076;SDS011;12420;42.676;23.262;2022-07-25T00:25:04;12.38;;;11.23;;
12076;SDS011;12420;42.676;23.262;2022-07-25T00:27:32;12.30;;;10.77;;
12076;SDS011;12420;42.676;23.262;2022-07-25T00:30:00;12.32;;;11.05;;
12076;SDS011;12420;42.676;23.262;2022-07-25T00:32:27;12.43;;;11.30;;
12076;SDS011;12420;42.676;23.262;2022-07-25T00:34:54;12.00;;;10.98;;
12076;SDS011;12420;42.676;23.262;2022-07-25T00:37:22;11.93;;;10.80;;
12076;SDS011;12420;42.676;23.262;2022-07-25T00:39:49;12.55;;;11.07;;
12076;SDS011;12420;42.676;23.262;2022-07-25T00:42:16;12.82;;;11.50;;
12076;SDS011;12420;42.676;23.262;2022-07-25T00:44:49;13.13;;;11.68;;
12076;SDS011;12420;42.676;23.262;2022-07-25T00:47:18;11.63;;;10.65;;
12076;SDS011;12420;42.676;23.262;2022-07-25T00:49:45;13.35;;;11.95;;
12076;SDS011;12420;42.676;23.262;2022-07-25T00:52:12;12.32;;;11.23;;
12076;SDS011;12420;42.676;23.262;2022-07-25T00:54:39;12.30;;;11.10;;
12076;SDS011;12420;42.676;23.262;2022-07-25T00:57:07;12.10;;;10.90;;
12076;SDS011;12420;42.676;23.262;2022-07-25T00:59:33;13.35;;;11.68;;
12076;SDS011;12420;42.676;23.262;2022-07-25T01:02:00;12.50;;;11.35;;
12076;SDS011;12420;42.676;23.262;2022-07-25T01:04:28;13.23;;;11.55;;
12076;SDS011;12420;42.676;23.262;2022-07-25T01:06:58;11.43;;;10.25;;
12076;SDS011;12420;42.676;23.262;2022-07-25T01:09:25;12.20;;;10.52;;
12076;SDS011;12420;42.676;23.262;2022-07-25T01:11:52;12.30;;;11.10;;
12076;SDS011;12420;42.676;23.262;2022-07-25T01:14:20;12.25;;;11.25;;
12076;SDS011;12420;42.676;23.262;2022-07-25T01:16:47;13.88;;;11.10;;
12076;SDS011;12420;42.676;23.262;2022-07-25T01:19:14;11.55;;;10.15;;
12076;SDS011;12420;42.676;23.262;2022-07-25T01:21:42;11.02;;;10.05;;
12076;SDS011;12420;42.676;23.262;2022-07-25T01:24:09;11.70;;;10.70;;
12076;SDS011;12420;42.676;23.262;2022-07-25T01:26:38;11.40;;;10.40;;
12076;SDS011;12420;42.676;23.262;2022-07-25T01:29:08;11.43;;;9.55;;
12076;SDS011;12420;42.676;23.262;2022-07-25T01:31:35;13.75;;;10.50;;
12076;SDS011;12420;42.676;23.262;2022-07-25T01:34:02;10.80;;;9.90;;
12076;SDS011;12420;42.676;23.262;2022-07-25T01:36:28;11.90;;;10.80;;
12076;SDS011;12420;42.676;23.262;2022-07-25T01:38:57;10.88;;;9.98;;
12076;SDS011;12420;42.676;23.262;2022-07-25T01:41:24;11.25;;;10.20;;
12076;SDS011;12420;42.676;23.262;2022-07-25T01:43:51;11.88;;;10.88;;
12076;SDS011;12420;42.676;23.262;2022-07-25T01:46:18;11.48;;;10.38;;
12076;SDS011;12420;42.676;23.262;2022-07-25T01:48:45;15.82;;;11.05;;
12076;SDS011;12420;42.676;23.262;2022-07-25T01:51:11;11.30;;;10.40;;
12076;SDS011;12420;42.676;23.262;2022-07-25T01:53:38;12.48;;;11.23;;
12076;SDS011;12420;42.676;23.262;2022-07-25T01:56:07;12.57;;;11.30;;
12076;SDS011;12420;42.676;23.262;2022-07-25T01:58:34;12.43;;;11.23;;
12076;SDS011;12420;42.676;23.262;2022-07-25T02:01:01;12.45;;;11.15;;
12076;SDS011;12420;42.676;23.262;2022-07-25T02:03:29;15.68;;;11.38;;
12076;SDS011;12420;42.676;23.262;2022-07-25T02:05:56;14.40;;;11.98;;
12076;SDS011;12420;42.676;23.262;2022-07-25T02:08:23;12.23;;;11.10;;
12076;SDS011;12420;42.676;23.262;2022-07-25T02:10:50;12.65;;;11.43;;
12076;SDS011;12420;42.676;23.262;2022-07-25T02:13:18;12.07;;;10.88;;
12076;SDS011;12420;42.676;23.262;2022-07-25T02:15:45;12.85;;;11.60;;
12076;SDS011;12420;42.676;23.262;2022-07-25T02:18:11;12.77;;;11.57;;
12076;SDS011;12420;42.676;23.262;2022-07-25T02:20:38;14.15;;;12.07;;
12076;SDS011;12420;42.676;23.262;2022-07-25T02:23:05;12.98;;;11.65;;
12076;SDS011;12420;42.676;23.262;2022-07-25T02:25:33;12.07;;;10.90;;
12076;SDS011;12420;42.676;23.262;2022-07-25T02:28:01;12.68;;;11.50;;
12076;SDS011;12420;42.676;23.262;2022-07-25T02:30:29;12.45;;;11.20;;
12076;SDS011;12420;42.676;23.262;2022-07-25T02:32:56;13.90;;;10.50;;
12076;SDS011;12420;42.676;23.262;2022-07-25T02:35:24;11.75;;;10.75;;
12076;SDS011;12420;42.676;23.262;2022-07-25T02:37:51;11.45;;;10.38;;
12076;SDS011;12420;42.676;23.262;2022-07-25T02:40:18;10.25;;;9.30;;
12076;SDS011;12420;42.676;23.262;2022-07-25T02:42:44;10.95;;;9.85;;
12076;SDS011;12420;42.676;23.262;2022-07-25T02:45:11;12.43;;;10.40;;
12076;SDS011;12420;42.676;23.262;2022-07-25T02:47:39;10.70;;;9.27;;
12076;SDS011;12420;42.676;23.262;2022-07-25T02:50:07;10.82;;;9.73;;
12076;SDS011;12420;42.676;23.262;2022-07-25T02:52:35;11.00;;;10.00;;
12076;SDS011;12420;42.676;23.262;2022-07-25T02:55:04;10.75;;;9.65;;
12076;SDS011;12420;42.676;23.262;2022-07-25T02:57:31;13.90;;;9.57;;
12076;SDS011;12420;42.676;23.262;2022-07-25T02:59:58;10.55;;;9.70;;
12076;SDS011;12420;42.676;23.262;2022-07-25T03:02:25;11.02;;;9.40;;
12076;SDS011;12420;42.676;23.262;2022-07-25T03:04:53;10.45;;;9.50;;
12076;SDS011;12420;42.676;23.262;2022-07-25T03:07:22;23.80;;;10.60;;
12076;SDS011;12420;42.676;23.262;2022-07-25T03:09:49;10.35;;;9.40;;
12076;SDS011;12420;42.676;23.262;2022-07-25T03:12:16;10.30;;;9.20;;
12076;SDS011;12420;42.676;23.262;2022-07-25T03:14:43;10.53;;;9.47;;
12076;SDS011;12420;42.676;23.262;2022-07-25T03:17:10;11.05;;;9.40;;
12076;SDS011;12420;42.676;23.262;2022-07-25T03:19:36;10.48;;;9.43;;
12076;SDS011;12420;42.676;23.262;2022-07-25T03:22:04;10.77;;;9.40;;
12076;SDS011;12420;42.676;23.262;2022-07-25T03:24:32;14.80;;;9.50;;
12076;SDS011;12420;42.676;23.262;2022-07-25T03:27:00;13.03;;;9.40;;
12076;SDS011;12420;42.676;23.262;2022-07-25T03:29:27;10.97;;;9.83;;
12076;SDS011;12420;42.676;23.262;2022-07-25T03:31:54;10.60;;;9.60;;
12076;SDS011;12420;42.676;23.262;2022-07-25T03:34:21;12.15;;;9.88;;
12076;SDS011;12420;42.676;23.262;2022-07-25T03:36:48;10.48;;;9.50;;
12076;SDS011;12420;42.676;23.262;2022-07-25T03:39:34;10.47;;;9.43;;
12076;SDS011;12420;42.676;23.262;2022-07-25T03:42:02;11.13;;;10.03;;
12076;SDS011;12420;42.676;23.262;2022-07-25T03:44:29;11.10;;;9.93;;
12076;SDS011;12420;42.676;23.262;2022-07-25T03:46:55;12.33;;;10.10;;
12076;SDS011;12420;42.676;23.262;2022-07-25T03:49:22;16.50;;;10.15;;
12076;SDS011;12420;42.676;23.262;2022-07-25T03:51:51;10.87;;;9.77;;
12076;SDS011;12420;42.676;23.262;2022-07-25T03:54:18;11.03;;;9.90;;
12076;SDS011;12420;42.676;23.262;2022-07-25T03:56:49;10.60;;;9.50;;
12076;SDS011;12420;42.676;23.262;2022-07-25T03:59:19;10.80;;;9.80;;
12076;SDS011;12420;42.676;23.262;2022-07-25T04:01:47;11.90;;;9.05;;
12076;SDS011;12420;42.676;23.262;2022-07-25T04:04:16;10.65;;;9.55;;
12076;SDS011;12420;42.676;23.262;2022-07-25T04:06:45;10.70;;;9.77;;
12076;SDS011;12420;42.676;23.262;2022-07-25T04:09:12;11.23;;;10.20;;
12076;SDS011;12420;42.676;23.262;2022-07-25T04:11:41;12.88;;;10.50;;
12076;SDS011;12420;42.676;23.262;2022-07-25T04:14:09;11.80;;;9.90;;
12076;SDS011;12420;42.676;23.262;2022-07-25T04:16:37;10.43;;;9.32;;
12076;SDS011;12420;42.676;23.262;2022-07-25T04:19:04;12.13;;;9.48;;
12076;SDS011;12420;42.676;23.262;2022-07-25T04:21:31;10.30;;;9.02;;
12076;SDS011;12420;42.676;23.262;2022-07-25T04:23:58;9.50;;;8.60;;
12076;SDS011;12420;42.676;23.262;2022-07-25T04:26:24;8.98;;;8.18;;
12076;SDS011;12420;42.676;23.262;2022-07-25T04:28:51;9.65;;;8.63;;
12076;SDS011;12420;42.676;23.262;2022-07-25T04:31:19;9.88;;;9.02;;
12076;SDS011;12420;42.676;23.262;2022-07-25T04:33:46;8.73;;;8.10;;
12076;SDS011;12420;42.676;23.262;2022-07-25T04:36:13;12.68;;;8.65;;
12076;SDS011;12420;42.676;23.262;2022-07-25T04:38:40;11.52;;;8.68;;
12076;SDS011;12420;42.676;23.262;2022-07-25T04:41:11;9.05;;;8.10;;
12076;SDS011;12420;42.676;23.262;2022-07-25T04:43:38;8.73;;;7.82;;
12076;SDS011;12420;42.676;23.262;2022-07-25T04:46:05;12.23;;;8.07;;
12076;SDS011;12420;42.676;23.262;2022-07-25T04:48:33;9.13;;;8.23;;
12076;SDS011;12420;42.676;23.262;2022-07-25T04:51:00;9.13;;;8.32;;
12076;SDS011;12420;42.676;23.262;2022-07-25T04:53:27;9.23;;;7.85;;
12076;SDS011;12420;42.676;23.262;2022-07-25T04:55:54;10.27;;;7.90;;
12076;SDS011;12420;42.676;23.262;2022-07-25T04:58:21;8.15;;;7.32;;
12076;SDS011;12420;42.676;23.262;2022-07-25T05:00:48;8.85;;;8.05;;
12076;SDS011;12420;42.676;23.262;2022-07-25T05:03:16;8.77;;;7.93;;
12076;SDS011;12420;42.676;23.262;2022-07-25T05:05:44;8.30;;;7.53;;
12076;SDS011;12420;42.676;23.262;2022-07-25T05:08:11;8.82;;;7.72;;
12076;SDS011;12420;42.676;23.262;2022-07-25T05:10:38;8.60;;;7.75;;
12076;SDS011;12420;42.676;23.262;2022-07-25T05:13:04;7.88;;;7.28;;
12076;SDS011;12420;42.676;23.262;2022-07-25T05:15:31;8.25;;;7.50;;
12076;SDS011;12420;42.676;23.262;2022-07-25T05:17:58;10.95;;;7.80;;
12076;SDS011;12420;42.676;23.262;2022-07-25T05:20:25;7.82;;;7.13;;
12076;SDS011;12420;42.676;23.262;2022-07-25T05:22:54;8.68;;;7.72;;
12076;SDS011;12420;42.676;23.262;2022-07-25T05:25:21;9.00;;;8.07;;
12076;SDS011;12420;42.676;23.262;2022-07-25T05:27:48;8.52;;;7.72;;
12076;SDS011;12420;42.676;23.262;2022-07-25T05:30:15;8.30;;;7.60;;
12076;SDS011;12420;42.676;23.262;2022-07-25T05:32:42;8.18;;;7.40;;
12076;SDS011;12420;42.676;23.262;2022-07-25T05:35:09;16.88;;;8.00;;
12076;SDS011;12420;42.676;23.262;2022-07-25T05:37:37;8.38;;;7.68;;
12076;SDS011;12420;42.676;23.262;2022-07-25T05:40:07;8.60;;;7.72;;
12076;SDS011;12420;42.676;23.262;2022-07-25T05:42:34;8.32;;;7.63;;
12076;SDS011;12420;42.676;23.262;2022-07-25T05:45:01;8.10;;;7.25;;
12076;SDS011;12420;42.676;23.262;2022-07-25T05:47:29;10.60;;;7.55;;
12076;SDS011;12420;42.676;23.262;2022-07-25T05:49:55;9.25;;;7.72;;
12076;SDS011;12420;42.676;23.262;2022-07-25T05:52:22;10.60;;;8.13;;
12076;SDS011;12420;42.676;23.262;2022-07-25T05:54:49;8.45;;;7.72;;
12076;SDS011;12420;42.676;23.262;2022-07-25T05:57:18;7.78;;;7.18;;
12076;SDS011;12420;42.676;23.262;2022-07-25T05:59:44;8.85;;;7.95;;
12076;SDS011;12420;42.676;23.262;2022-07-25T06:02:11;8.63;;;7.60;;
12076;SDS011;12420;42.676;23.262;2022-07-25T06:04:38;7.80;;;7.05;;
12076;SDS011;12420;42.676;23.262;2022-07-25T06:07:11;8.52;;;7.72;;
12076;SDS011;12420;42.676;23.262;2022-07-25T06:09:38;7.88;;;7.22;;
12076;SDS011;12420;42.676;23.262;2022-07-25T06:12:05;10.07;;;7.90;;
12076;SDS011;12420;42.676;23.262;2022-07-25T06:14:33;8.52;;;7.40;;
12076;SDS011;12420;42.676;23.262;2022-07-25T06:17:00;8.52;;;7.55;;
12076;SDS011;12420;42.676;23.262;2022-07-25T06:19:29;8.38;;;7.60;;
12076;SDS011;12420;42.676;23.262;2022-07-25T06:21:57;7.78;;;7.18;;
12076;SDS011;12420;42.676;23.262;2022-07-25T06:24:24;8.00;;;7.30;;
12076;SDS011;12420;42.676;23.262;2022-07-25T06:26:51;11.05;;;7.75;;
12076;SDS011;12420;42.676;23.262;2022-07-25T06:29:18;8.43;;;7.57;;
12076;SDS011;12420;42.676;23.262;2022-07-25T06:31:46;8.93;;;7.50;;
12076;SDS011;12420;42.676;23.262;2022-07-25T06:34:13;9.35;;;7.28;;
12076;SDS011;12420;42.676;23.262;2022-07-25T06:36:40;7.60;;;7.00;;
12076;SDS011;12420;42.676;23.262;2022-07-25T06:39:07;8.38;;;7.50;;
12076;SDS011;12420;42.676;23.262;2022-07-25T06:41:34;9.43;;;7.95;;
12076;SDS011;12420;42.676;23.262;2022-07-25T06:44:01;9.63;;;8.82;;
12076;SDS011;12420;42.676;23.262;2022-07-25T06:46:28;8.77;;;7.45;;
12076;SDS011;12420;42.676;23.262;2022-07-25T06:48:58;8.55;;;7.78;;
12076;SDS011;12420;42.676;23.262;2022-07-25T06:51:25;9.45;;;8.45;;
12076;SDS011;12420;42.676;23.262;2022-07-25T06:53:52;7.95;;;7.35;;
12076;SDS011;12420;42.676;23.262;2022-07-25T06:56:19;7.85;;;7.28;;
12076;SDS011;12420;42.676;23.262;2022-07-25T06:58:46;9.75;;;8.82;;
12076;SDS011;12420;42.676;23.262;2022-07-25T07:01:13;11.18;;;9.18;;
12076;SDS011;12420;42.676;23.262;2022-07-25T07:03:40;12.63;;;9.82;;
12076;SDS011;12420;42.676;23.262;2022-07-25T07:06:08;10.45;;;9.00;;
12076;SDS011;12420;42.676;23.262;2022-07-25T07:08:35;9.15;;;8.23;;
12076;SDS011;12420;42.676;23.262;2022-07-25T07:11:03;13.15;;;10.15;;
12076;SDS011;12420;42.676;23.262;2022-07-25T07:13:30;9.45;;;8.25;;
12076;SDS011;12420;42.676;23.262;2022-07-25T07:15:57;8.30;;;7.55;;
12076;SDS011;12420;42.676;23.262;2022-07-25T07:18:24;8.05;;;7.30;;
12076;SDS011;12420;42.676;23.262;2022-07-25T07:20:51;8.75;;;7.80;;
12076;SDS011;12420;42.676;23.262;2022-07-25T07:23:19;8.85;;;7.95;;
12076;SDS011;12420;42.676;23.262;2022-07-25T07:25:46;8.93;;;8.13;;
12076;SDS011;12420;42.676;23.262;2022-07-25T07:28:13;8.90;;;8.15;;
12076;SDS011;12420;42.676;23.262;2022-07-25T07:30:40;8.70;;;7.90;;
12076;SDS011;12420;42.676;23.262;2022-07-25T07:33:07;8.73;;;8.02;;
12076;SDS011;12420;42.676;23.262;2022-07-25T07:35:34;8.40;;;7.70;;
12076;SDS011;12420;42.676;23.262;2022-07-25T07:38:01;8.55;;;7.82;;
12076;SDS011;12420;42.676;23.262;2022-07-25T07:40:30;8.60;;;7.80;;
12076;SDS011;12420;42.676;23.262;2022-07-25T07:42:58;9.25;;;8.18;;
12076;SDS011;12420;42.676;23.262;2022-07-25T07:45:27;8.68;;;7.88;;
12076;SDS011;12420;42.676;23.262;2022-07-25T07:47:55;8.90;;;8.10;;
12076;SDS011;12420;42.676;23.262;2022-07-25T07:50:22;9.18;;;8.27;;
12076;SDS011;12420;42.676;23.262;2022-07-25T07:52:51;8.35;;;7.68;;
12076;SDS011;12420;42.676;23.262;2022-07-25T07:55:19;8.77;;;7.75;;
12076;SDS011;12420;42.676;23.262;2022-07-25T07:58:05;8.07;;;7.40;;
12076;SDS011;12420;42.676;23.262;2022-07-25T08:00:33;8.55;;;7.80;;
12076;SDS011;12420;42.676;23.262;2022-07-25T08:03:03;8.93;;;8.23;;
12076;SDS011;12420;42.676;23.262;2022-07-25T08:05:34;8.82;;;8.02;;
12076;SDS011;12420;42.676;23.262;2022-07-25T08:08:04;9.43;;;8.32;;
12076;SDS011;12420;42.676;23.262;2022-07-25T08:10:33;8.48;;;7.78;;
12076;SDS011;12420;42.676;23.262;2022-07-25T08:13:02;8.20;;;7.40;;
12076;SDS011;12420;42.676;23.262;2022-07-25T08:15:39;9.02;;;8.20;;
12076;SDS011;12420;42.676;23.262;2022-07-25T08:18:07;8.23;;;7.53;;
12076;SDS011;12420;42.676;23.262;2022-07-25T08:20:34;8.90;;;8.00;;
12076;SDS011;12420;42.676;23.262;2022-07-25T08:23:04;8.27;;;7.57;;
12076;SDS011;12420;42.676;23.262;2022-07-25T08:25:31;8.02;;;7.43;;
12076;SDS011;12420;42.676;23.262;2022-07-25T08:27:59;8.95;;;8.05;;
12076;SDS011;12420;42.676;23.262;2022-07-25T08:30:26;8.88;;;7.65;;
12076;SDS011;12420;42.676;23.262;2022-07-25T08:32:55;9.10;;;8.40;;
12076;SDS011;12420;42.676;23.262;2022-07-25T08:35:24;8.70;;;7.90;;
12076;SDS011;12420;42.676;23.262;2022-07-25T08:37:52;8.15;;;7.55;;
12076;SDS011;12420;42.676;23.262;2022-07-25T08:40:21;8.68;;;7.60;;
12076;SDS011;12420;42.676;23.262;2022-07-25T08:42:52;8.05;;;7.28;;
12076;SDS011;12420;42.676;23.262;2022-07-25T08:45:21;7.75;;;7.10;;
12076;SDS011;12420;42.676;23.262;2022-07-25T08:47:49;7.93;;;7.07;;
12076;SDS011;12420;42.676;23.262;2022-07-25T08:50:20;8.45;;;7.65;;
12076;SDS011;12420;42.676;23.262;2022-07-25T08:52:48;9.10;;;7.78;;
12076;SDS011;12420;42.676;23.262;2022-07-25T08:55:17;9.75;;;7.57;;
12076;SDS011;12420;42.676;23.262;2022-07-25T08:57:47;8.15;;;7.35;;
12076;SDS011;12420;42.676;23.262;2022-07-25T09:00:16;8.30;;;7.50;;
12076;SDS011;12420;42.676;23.262;2022-07-25T09:02:50;7.68;;;6.97;;
12076;SDS011;12420;42.676;23.262;2022-07-25T09:05:17;8.13;;;7.40;;
12076;SDS011;12420;42.676;23.262;2022-07-25T09:07:46;7.57;;;6.97;;
12076;SDS011;12420;42.676;23.262;2022-07-25T09:10:15;8.52;;;7.63;;
12076;SDS011;12420;42.676;23.262;2022-07-25T09:12:52;8.05;;;7.25;;
12076;SDS011;12420;42.676;23.262;2022-07-25T09:15:27;10.15;;;7.97;;
12076;SDS011;12420;42.676;23.262;2022-07-25T09:17:55;8.02;;;7.43;;
12076;SDS011;12420;42.676;23.262;2022-07-25T09:20:22;7.95;;;7.25;;
12076;SDS011;12420;42.676;23.262;2022-07-25T09:22:51;8.10;;;7.40;;
12076;SDS011;12420;42.676;23.262;2022-07-25T09:25:22;7.78;;;7.28;;
12076;SDS011;12420;42.676;23.262;2022-07-25T09:27:49;7.63;;;7.05;;
12076;SDS011;12420;42.676;23.262;2022-07-25T09:30:16;7.70;;;7.00;;
12076;SDS011;12420;42.676;23.262;2022-07-25T09:32:43;8.43;;;7.72;;
12076;SDS011;12420;42.676;23.262;2022-07-25T09:35:10;8.35;;;7.65;;
12076;SDS011;12420;42.676;23.262;2022-07-25T09:37:37;8.18;;;7.43;;
12076;SDS011;12420;42.676;23.262;2022-07-25T09:40:12;8.00;;;7.40;;
12076;SDS011;12420;42.676;23.262;2022-07-25T09:42:40;8.77;;;7.97;;
12076;SDS011;12420;42.676;23.262;2022-07-25T09:45:19;8.43;;;7.63;;
12076;SDS011;12420;42.676;23.262;2022-07-25T09:47:49;8.25;;;7.38;;
12076;SDS011;12420;42.676;23.262;2022-07-25T09:50:17;8.10;;;7.30;;
12076;SDS011;12420;42.676;23.262;2022-07-25T09:52:47;7.85;;;7.25;;
12076;SDS011;12420;42.676;23.262;2022-07-25T09:55:17;7.90;;;7.30;;
12076;SDS011;12420;42.676;23.262;2022-07-25T09:57:44;7.70;;;7.03;;
12076;SDS011;12420;42.676;23.262;2022-07-25T10:00:13;7.65;;;6.95;;
12076;SDS011;12420;42.676;23.262;2022-07-25T10:02:46;8.02;;;7.43;;
12076;SDS011;12420;42.676;23.262;2022-07-25T10:05:18;14.02;;;7.22;;
12076;SDS011;12420;42.676;23.262;2022-07-25T10:07:54;7.85;;;7.25;;
12076;SDS011;12420;42.676;23.262;2022-07-25T10:10:27;8.13;;;7.32;;
12076;SDS011;12420;42.676;23.262;2022-07-25T10:12:59;8.25;;;7.45;;
12076;SDS011;12420;42.676;23.262;2022-07-25T10:15:38;7.57;;;6.95;;
12076;SDS011;12420;42.676;23.262;2022-07-25T10:18:08;7.20;;;6.70;;
12076;SDS011;12420;42.676;23.262;2022-07-25T10:20:35;7.47;;;6.90;;
12076;SDS011;12420;42.676;23.262;2022-07-25T10:23:02;6.95;;;6.45;;
12076;SDS011;12420;42.676;23.262;2022-07-25T10:25:30;7.80;;;7.15;;
12076;SDS011;12420;42.676;23.262;2022-07-25T10:27:58;7.70;;;7.00;;
12076;SDS011;12420;42.676;23.262;2022-07-25T10:30:33;7.60;;;7.00;;
12076;SDS011;12420;42.676;23.262;2022-07-25T10:33:01;7.68;;;6.80;;
12076;SDS011;12420;42.676;23.262;2022-07-25T10:35:36;8.30;;;7.10;;
12076;SDS011;12420;42.676;23.262;2022-07-25T10:38:05;7.47;;;6.70;;
12076;SDS011;12420;42.676;23.262;2022-07-25T10:40:33;7.43;;;6.72;;
12076;SDS011;12420;42.676;23.262;2022-07-25T10:43:06;7.35;;;6.63;;
12076;SDS011;12420;42.676;23.262;2022-07-25T10:45:38;7.00;;;6.40;;
12076;SDS011;12420;42.676;23.262;2022-07-25T10:48:09;7.47;;;6.88;;
12076;SDS011;12420;42.676;23.262;2022-07-25T10:50:50;7.28;;;6.57;;
12076;SDS011;12420;42.676;23.262;2022-07-25T10:53:29;6.70;;;6.20;;
12076;SDS011;12420;42.676;23.262;2022-07-25T10:56:01;7.13;;;6.53;;
12076;SDS011;12420;42.676;23.262;2022-07-25T10:58:40;6.90;;;6.38;;
12076;SDS011;12420;42.676;23.262;2022-07-25T11:01:08;7.25;;;6.55;;
12076;SDS011;12420;42.676;23.262;2022-07-25T11:03:40;7.07;;;6.47;;
12076;SDS011;12420;42.676;23.262;2022-07-25T11:06:10;7.85;;;7.05;;
12076;SDS011;12420;42.676;23.262;2022-07-25T11:08:39;7.68;;;6.88;;
12076;SDS011;12420;42.676;23.262;2022-07-25T11:11:08;6.63;;;6.13;;
12076;SDS011;12420;42.676;23.262;2022-07-25T11:13:36;6.43;;;5.88;;
12076;SDS011;12420;42.676;23.262;2022-07-25T11:16:03;6.18;;;5.78;;
12076;SDS011;12420;42.676;23.262;2022-07-25T11:18:32;6.63;;;6.15;;
12076;SDS011;12420;42.676;23.262;2022-07-25T11:21:01;6.63;;;6.03;;
12076;SDS011;12420;42.676;23.262;2022-07-25T11:23:30;6.43;;;5.82;;
12076;SDS011;12420;42.676;23.262;2022-07-25T11:26:16;6.88;;;6.28;;
12076;SDS011;12420;42.676;23.262;2022-07-25T11:28:44;7.72;;;6.78;;
12076;SDS011;12420;42.676;23.262;2022-07-25T11:31:12;7.20;;;6.18;;
12076;SDS011;12420;42.676;23.262;2022-07-25T11:33:42;6.72;;;6.13;;
12076;SDS011;12420;42.676;23.262;2022-07-25T11:36:12;6.22;;;5.68;;
12076;SDS011;12420;42.676;23.262;2022-07-25T11:38:39;6.93;;;5.95;;
12076;SDS011;12420;42.676;23.262;2022-07-25T11:41:07;6.22;;;5.82;;
12076;SDS011;12420;42.676;23.262;2022-07-25T11:43:34;7.50;;;6.22;;
12076;SDS011;12420;42.676;23.262;2022-07-25T11:46:02;7.43;;;6.22;;
12076;SDS011;12420;42.676;23.262;2022-07-25T11:48:32;6.85;;;6.35;;
12076;SDS011;12420;42.676;23.262;2022-07-25T11:51:07;6.57;;;6.07;;
12076;SDS011;12420;42.676;23.262;2022-07-25T11:53:40;6.50;;;6.10;;
12076;SDS011;12420;42.676;23.262;2022-07-25T11:56:16;6.88;;;6.35;;
12076;SDS011;12420;42.676;23.262;2022-07-25T11:58:48;6.72;;;6.22;;
12076;SDS011;12420;42.676;23.262;2022-07-25T12:01:23;7.03;;;6.43;;
12076;SDS011;12420;42.676;23.262;2022-07-25T12:03:50;9.85;;;6.78;;
12076;SDS011;12420;42.676;23.262;2022-07-25T12:06:17;7.00;;;6.38;;
12076;SDS011;12420;42.676;23.262;2022-07-25T12:08:44;7.05;;;6.55;;
12076;SDS011;12420;42.676;23.262;2022-07-25T12:11:16;7.50;;;6.90;;
12076;SDS011;12420;42.676;23.262;2022-07-25T12:13:47;6.78;;;6.18;;
12076;SDS011;12420;42.676;23.262;2022-07-25T12:16:15;6.78;;;6.20;;
12076;SDS011;12420;42.676;23.262;2022-07-25T12:18:45;7.50;;;6.63;;
12076;SDS011;12420;42.676;23.262;2022-07-25T12:21:13;7.22;;;6.65;;
12076;SDS011;12420;42.676;23.262;2022-07-25T12:23:40;6.60;;;6.00;;
12076;SDS011;12420;42.676;23.262;2022-07-25T12:26:07;6.80;;;6.10;;
12076;SDS011;12420;42.676;23.262;2022-07-25T12:28:37;7.35;;;6.55;;
12076;SDS011;12420;42.676;23.262;2022-07-25T12:31:04;6.90;;;6.35;;
12076;SDS011;12420;42.676;23.262;2022-07-25T12:33:31;6.65;;;6.05;;
12076;SDS011;12420;42.676;23.262;2022-07-25T12:35:58;7.25;;;6.55;;
12076;SDS011;12420;42.676;23.262;2022-07-25T12:38:25;6.75;;;6.15;;
12076;SDS011;12420;42.676;23.262;2022-07-25T12:40:52;7.30;;;6.70;;
12076;SDS011;12420;42.676;23.262;2022-07-25T12:43:20;7.70;;;6.95;;
12076;SDS011;12420;42.676;23.262;2022-07-25T12:45:48;7.80;;;7.00;;
12076;SDS011;12420;42.676;23.262;2022-07-25T12:48:15;9.50;;;7.28;;
12076;SDS011;12420;42.676;23.262;2022-07-25T12:50:43;6.85;;;6.35;;
12076;SDS011;12420;42.676;23.262;2022-07-25T12:53:10;7.28;;;6.60;;
12076;SDS011;12420;42.676;23.262;2022-07-25T12:55:38;7.43;;;6.72;;
12076;SDS011;12420;42.676;23.262;2022-07-25T12:58:06;8.15;;;6.72;;
12076;SDS011;12420;42.676;23.262;2022-07-25T13:00:34;7.00;;;6.40;;
12076;SDS011;12420;42.676;23.262;2022-07-25T13:03:02;7.25;;;6.55;;
12076;SDS011;12420;42.676;23.262;2022-07-25T13:05:29;7.30;;;6.80;;
12076;SDS011;12420;42.676;23.262;2022-07-25T13:07:56;8.68;;;7.25;;
12076;SDS011;12420;42.676;23.262;2022-07-25T13:10:23;7.45;;;6.82;;
12076;SDS011;12420;42.676;23.262;2022-07-25T13:12:49;6.80;;;6.30;;
12076;SDS011;12420;42.676;23.262;2022-07-25T13:15:16;7.28;;;6.60;;
12076;SDS011;12420;42.676;23.262;2022-07-25T13:17:46;8.45;;;6.80;;
12076;SDS011;12420;42.676;23.262;2022-07-25T13:20:14;6.70;;;6.10;;
12076;SDS011;12420;42.676;23.262;2022-07-25T13:22:41;7.32;;;6.82;;
12076;SDS011;12420;42.676;23.262;2022-07-25T13:25:08;7.50;;;6.90;;
12076;SDS011;12420;42.676;23.262;2022-07-25T13:27:35;7.07;;;6.32;;
12076;SDS011;12420;42.676;23.262;2022-07-25T13:30:03;8.10;;;6.60;;
12076;SDS011;12420;42.676;23.262;2022-07-25T13:32:31;7.28;;;6.57;;
12076;SDS011;12420;42.676;23.262;2022-07-25T13:34:58;7.35;;;6.75;;
12076;SDS011;12420;42.676;23.262;2022-07-25T13:37:26;7.13;;;6.60;;
12076;SDS011;12420;42.676;23.262;2022-07-25T13:39:56;7.53;;;6.82;;
12076;SDS011;12420;42.676;23.262;2022-07-25T13:42:22;7.70;;;6.85;;
12076;SDS011;12420;42.676;23.262;2022-07-25T13:44:49;6.68;;;6.15;;
12076;SDS011;12420;42.676;23.262;2022-07-25T13:47:16;7.03;;;6.43;;
12076;SDS011;12420;42.676;23.262;2022-07-25T13:49:43;7.03;;;6.53;;
12076;SDS011;12420;42.676;23.262;2022-07-25T13:52:09;6.65;;;6.20;;
12076;SDS011;12420;42.676;23.262;2022-07-25T13:54:38;6.70;;;6.20;;
12076;SDS011;12420;42.676;23.262;2022-07-25T13:57:04;7.60;;;6.80;;
12076;SDS011;12420;42.676;23.262;2022-07-25T13:59:31;7.57;;;6.93;;
12076;SDS011;12420;42.676;23.262;2022-07-25T14:01:58;6.97;;;6.38;;
12076;SDS011;12420;42.676;23.262;2022-07-25T14:04:25;7.22;;;6.55;;
12076;SDS011;12420;42.676;23.262;2022-07-25T14:06:51;6.75;;;6.25;;
12076;SDS011;12420;42.676;23.262;2022-07-25T14:09:18;6.63;;;6.13;;
12076;SDS011;12420;42.676;23.262;2022-07-25T14:11:46;6.93;;;6.15;;
12076;SDS011;12420;42.676;23.262;2022-07-25T14:14:13;6.95;;;6.22;;
12076;SDS011;12420;42.676;23.262;2022-07-25T14:16:40;7.32;;;6.57;;
12076;SDS011;12420;42.676;23.262;2022-07-25T14:19:07;6.65;;;6.20;;
12076;SDS011;12420;42.676;23.262;2022-07-25T14:21:34;6.45;;;5.95;;
12076;SDS011;12420;42.676;23.262;2022-07-25T14:24:02;6.78;;;6.35;;
12076;SDS011;12420;42.676;23.262;2022-07-25T14:26:30;7.28;;;6.45;;
12076;SDS011;12420;42.676;23.262;2022-07-25T14:28:58;6.70;;;5.97;;
12076;SDS011;12420;42.676;23.262;2022-07-25T14:31:25;6.82;;;6.32;;
12076;SDS011;12420;42.676;23.262;2022-07-25T14:33:51;6.97;;;6.45;;